sensor_id;sensor_type;location;lat;lon;timestamp;pressure;altitude;pressure_sealevel;temperature;humidity
77823;BME280;67013;49.730;17.292;2024-02-23T00:00:26;96495.76;;;8.12;78.42
77823;BME280;67013;49.730;17.292;2024-02-23T00:02:56;96494.45;;;8.11;78.51
77823;BME280;67013;49.730;17.292;2024-02-23T00:05:26;96491.25;;;8.10;78.54
77823;BME280;67013;49.730;17.292;2024-02-23T00:07:56;96495.98;;;8.09;78.61
77823;BME280;67013;49.730;17.292;2024-02-23T00:10:25;96495.00;;;8.09;78.68
77823;BME280;67013;49.730;17.292;2024-02-23T00:12:57;96504.19;;;8.10;78.54
77823;BME280;67013;49.730;17.292;2024-02-23T00:15:27;96503.55;;;8.11;78.71
77823;BME280;67013;49.730;17.292;2024-02-23T00:17:57;96505.69;;;8.13;78.50
77823;BME280;67013;49.730;17.292;2024-02-23T00:20:27;96508.30;;;8.14;78.42
77823;BME280;67013;49.730;17.292;2024-02-23T00:22:56;96505.30;;;8.17;78.44
77823;BME280;67013;49.730;17.292;2024-02-23T00:25:26;96511.77;;;8.20;78.53
77823;BME280;67013;49.730;17.292;2024-02-23T00:27:55;96517.86;;;8.21;78.47
77823;BME280;67013;49.730;17.292;2024-02-23T00:30:25;96516.19;;;8.23;78.16
77823;BME280;67013;49.730;17.292;2024-02-23T00:32:55;96512.39;;;8.25;78.34
77823;BME280;67013;49.730;17.292;2024-02-23T00:35:25;96513.39;;;8.29;78.25
77823;BME280;67013;49.730;17.292;2024-02-23T00:37:54;96514.23;;;8.33;78.25
77823;BME280;67013;49.730;17.292;2024-02-23T00:40:24;96519.91;;;8.35;77.91
77823;BME280;67013;49.730;17.292;2024-02-23T00:42:54;96515.83;;;8.38;77.71
77823;BME280;67013;49.730;17.292;2024-02-23T00:45:23;96515.04;;;8.39;77.51
77823;BME280;67013;49.730;17.292;2024-02-23T00:47:53;96515.72;;;8.39;77.46
77823;BME280;67013;49.730;17.292;2024-02-23T00:50:23;96509.90;;;8.36;77.31
77823;BME280;67013;49.730;17.292;2024-02-23T00:52:56;96513.70;;;8.34;77.32
77823;BME280;67013;49.730;17.292;2024-02-23T00:55:26;96511.03;;;8.33;77.37
77823;BME280;67013;49.730;17.292;2024-02-23T00:57:55;96515.13;;;8.34;77.15
77823;BME280;67013;49.730;17.292;2024-02-23T01:00:25;96509.02;;;8.35;77.10
77823;BME280;67013;49.730;17.292;2024-02-23T01:02:55;96514.22;;;8.34;76.90
77823;BME280;67013;49.730;17.292;2024-02-23T01:05:25;96515.08;;;8.35;76.95
77823;BME280;67013;49.730;17.292;2024-02-23T01:07:55;96516.20;;;8.34;77.09
77823;BME280;67013;49.730;17.292;2024-02-23T01:10:24;96518.10;;;8.36;77.09
77823;BME280;67013;49.730;17.292;2024-02-23T01:12:55;96523.98;;;8.38;76.94
77823;BME280;67013;49.730;17.292;2024-02-23T01:15:25;96529.36;;;8.39;76.98
77823;BME280;67013;49.730;17.292;2024-02-23T01:17:55;96532.50;;;8.43;76.76
77823;BME280;67013;49.730;17.292;2024-02-23T01:20:25;96533.58;;;8.48;76.65
77823;BME280;67013;49.730;17.292;2024-02-23T01:22:54;96525.97;;;8.52;76.36
77823;BME280;67013;49.730;17.292;2024-02-23T01:25:24;96521.61;;;8.54;76.20
77823;BME280;67013;49.730;17.292;2024-02-23T01:27:53;96521.06;;;8.54;76.18
77823;BME280;67013;49.730;17.292;2024-02-23T01:30:23;96519.34;;;8.52;76.05
77823;BME280;67013;49.730;17.292;2024-02-23T01:32:53;96521.05;;;8.51;76.19
77823;BME280;67013;49.730;17.292;2024-02-23T01:35:25;96517.23;;;8.48;76.25
77823;BME280;67013;49.730;17.292;2024-02-23T01:37:56;96510.15;;;8.46;76.35
77823;BME280;67013;49.730;17.292;2024-02-23T01:40:25;96515.63;;;8.44;76.43
77823;BME280;67013;49.730;17.292;2024-02-23T01:43:04;96515.44;;;8.42;76.49
77823;BME280;67013;49.730;17.292;2024-02-23T01:45:34;96528.84;;;8.41;76.57
77823;BME280;67013;49.730;17.292;2024-02-23T01:48:04;96537.02;;;8.41;76.74
77823;BME280;67013;49.730;17.292;2024-02-23T01:50:34;96536.39;;;8.42;76.79
77823;BME280;67013;49.730;17.292;2024-02-23T01:53:05;96541.07;;;8.45;76.88
77823;BME280;67013;49.730;17.292;2024-02-23T01:55:34;96546.46;;;8.49;76.77
77823;BME280;67013;49.730;17.292;2024-02-23T01:58:05;96545.73;;;8.51;76.67
77823;BME280;67013;49.730;17.292;2024-02-23T02:00:35;96543.55;;;8.53;76.54
77823;BME280;67013;49.730;17.292;2024-02-23T02:03:05;96532.61;;;8.51;76.62
77823;BME280;67013;49.730;17.292;2024-02-23T02:05:37;96529.35;;;8.47;76.60
77823;BME280;67013;49.730;17.292;2024-02-23T02:08:07;96530.34;;;8.42;76.83
77823;BME280;67013;49.730;17.292;2024-02-23T02:10:37;96527.13;;;8.39;76.98
77823;BME280;67013;49.730;17.292;2024-02-23T02:13:06;96533.64;;;8.36;76.92
77823;BME280;67013;49.730;17.292;2024-02-23T02:15:37;96535.12;;;8.35;77.13
77823;BME280;67013;49.730;17.292;2024-02-23T02:18:07;96535.95;;;8.35;77.10
77823;BME280;67013;49.730;17.292;2024-02-23T02:20:37;96535.58;;;8.34;77.14
77823;BME280;67013;49.730;17.292;2024-02-23T02:23:10;96531.34;;;8.33;77.18
77823;BME280;67013;49.730;17.292;2024-02-23T02:25:40;96527.57;;;8.33;77.12
77823;BME280;67013;49.730;17.292;2024-02-23T02:28:10;96522.95;;;8.30;77.17
77823;BME280;67013;49.730;17.292;2024-02-23T02:30:39;96519.60;;;8.29;77.19
77823;BME280;67013;49.730;17.292;2024-02-23T02:33:09;96509.60;;;8.27;77.17
77823;BME280;67013;49.730;17.292;2024-02-23T02:35:38;96506.89;;;8.24;77.21
77823;BME280;67013;49.730;17.292;2024-02-23T02:38:08;96500.59;;;8.21;77.13
77823;BME280;67013;49.730;17.292;2024-02-23T02:40:38;96497.45;;;8.17;77.19
77823;BME280;67013;49.730;17.292;2024-02-23T02:43:08;96490.45;;;8.15;77.29
77823;BME280;67013;49.730;17.292;2024-02-23T02:45:37;96485.92;;;8.11;77.58
77823;BME280;67013;49.730;17.292;2024-02-23T02:48:08;96475.95;;;8.09;77.66
77823;BME280;67013;49.730;17.292;2024-02-23T02:50:38;96469.02;;;8.05;77.62
77823;BME280;67013;49.730;17.292;2024-02-23T02:53:07;96464.98;;;8.00;77.88
77823;BME280;67013;49.730;17.292;2024-02-23T02:55:40;96464.36;;;7.96;77.99
77823;BME280;67013;49.730;17.292;2024-02-23T02:58:10;96463.70;;;7.93;78.28
77823;BME280;67013;49.730;17.292;2024-02-23T03:00:40;96463.44;;;7.91;78.35
77823;BME280;67013;49.730;17.292;2024-02-23T03:03:10;96463.63;;;7.89;78.41
77823;BME280;67013;49.730;17.292;2024-02-23T03:05:41;96462.52;;;7.88;78.50
77823;BME280;67013;49.730;17.292;2024-02-23T03:08:10;96461.76;;;7.87;78.55
77823;BME280;67013;49.730;17.292;2024-02-23T03:10:39;96463.36;;;7.88;78.72
77823;BME280;67013;49.730;17.292;2024-02-23T03:13:09;96466.64;;;7.90;78.75
77823;BME280;67013;49.730;17.292;2024-02-23T03:15:38;96466.50;;;7.91;78.61
77823;BME280;67013;49.730;17.292;2024-02-23T03:18:08;96468.90;;;7.92;78.73
77823;BME280;67013;49.730;17.292;2024-02-23T03:20:38;96478.41;;;7.92;78.77
77823;BME280;67013;49.730;17.292;2024-02-23T03:23:08;96486.16;;;7.92;78.64
77823;BME280;67013;49.730;17.292;2024-02-23T03:25:37;96487.32;;;7.93;78.72
77823;BME280;67013;49.730;17.292;2024-02-23T03:28:07;96489.06;;;7.92;78.80
77823;BME280;67013;49.730;17.292;2024-02-23T03:30:36;96499.38;;;7.93;78.78
77823;BME280;67013;49.730;17.292;2024-02-23T03:33:06;96495.81;;;7.94;78.83
77823;BME280;67013;49.730;17.292;2024-02-23T03:35:36;96491.63;;;7.95;78.80
77823;BME280;67013;49.730;17.292;2024-02-23T03:38:05;96507.33;;;7.93;78.90
77823;BME280;67013;49.730;17.292;2024-02-23T03:40:35;96511.45;;;7.94;78.91
77823;BME280;67013;49.730;17.292;2024-02-23T03:43:05;96509.70;;;7.94;78.95
77823;BME280;67013;49.730;17.292;2024-02-23T03:45:35;96509.97;;;7.95;79.05
77823;BME280;67013;49.730;17.292;2024-02-23T03:48:05;96523.85;;;7.96;79.01
77823;BME280;67013;49.730;17.292;2024-02-23T03:50:34;96516.85;;;7.99;79.17
77823;BME280;67013;49.730;17.292;2024-02-23T03:53:04;96519.91;;;8.01;79.20
77823;BME280;67013;49.730;17.292;2024-02-23T03:55:34;96526.90;;;8.04;79.07
77823;BME280;67013;49.730;17.292;2024-02-23T03:58:03;96528.98;;;8.06;79.11
77823;BME280;67013;49.730;17.292;2024-02-23T04:00:34;96526.43;;;8.07;79.21
77823;BME280;67013;49.730;17.292;2024-02-23T04:03:04;96525.83;;;8.10;79.16
77823;BME280;67013;49.730;17.292;2024-02-23T04:05:33;96518.98;;;8.13;78.96
77823;BME280;67013;49.730;17.292;2024-02-23T04:08:03;96521.89;;;8.13;78.93
77823;BME280;67013;49.730;17.292;2024-02-23T04:10:34;96517.41;;;8.13;78.86
77823;BME280;67013;49.730;17.292;2024-02-23T04:13:04;96522.16;;;8.12;78.89
77823;BME280;67013;49.730;17.292;2024-02-23T04:15:33;96527.79;;;8.13;78.95
77823;BME280;67013;49.730;17.292;2024-02-23T04:18:03;96521.52;;;8.14;78.91
77823;BME280;67013;49.730;17.292;2024-02-23T04:20:33;96528.21;;;8.14;78.91
77823;BME280;67013;49.730;17.292;2024-02-23T04:23:02;96540.16;;;8.16;78.95
77823;BME280;67013;49.730;17.292;2024-02-23T04:25:32;96546.41;;;8.18;78.94
77823;BME280;67013;49.730;17.292;2024-02-23T04:28:02;96557.83;;;8.18;79.02
77823;BME280;67013;49.730;17.292;2024-02-23T04:30:31;96565.76;;;8.20;78.97
77823;BME280;67013;49.730;17.292;2024-02-23T04:33:01;96568.24;;;8.23;79.19
77823;BME280;67013;49.730;17.292;2024-02-23T04:35:30;96571.34;;;8.26;79.07
77823;BME280;67013;49.730;17.292;2024-02-23T04:38:00;96584.73;;;8.29;79.10
77823;BME280;67013;49.730;17.292;2024-02-23T04:40:29;96589.66;;;8.31;79.20
77823;BME280;67013;49.730;17.292;2024-02-23T04:42:59;96598.39;;;8.35;79.42
77823;BME280;67013;49.730;17.292;2024-02-23T04:45:28;96605.80;;;8.37;79.32
77823;BME280;67013;49.730;17.292;2024-02-23T04:47:58;96614.69;;;8.38;79.39
77823;BME280;67013;49.730;17.292;2024-02-23T04:50:27;96617.05;;;8.37;79.52
77823;BME280;67013;49.730;17.292;2024-02-23T04:52:57;96622.08;;;8.37;79.58
77823;BME280;67013;49.730;17.292;2024-02-23T04:55:27;96625.00;;;8.39;79.62
77823;BME280;67013;49.730;17.292;2024-02-23T04:57:56;96633.64;;;8.39;79.82
77823;BME280;67013;49.730;17.292;2024-02-23T05:00:26;96642.34;;;8.37;79.80
77823;BME280;67013;49.730;17.292;2024-02-23T05:03:01;96647.38;;;8.35;79.86
77823;BME280;67013;49.730;17.292;2024-02-23T05:05:32;96653.83;;;8.34;79.95
77823;BME280;67013;49.730;17.292;2024-02-23T05:08:02;96659.61;;;8.33;80.04
77823;BME280;67013;49.730;17.292;2024-02-23T05:10:31;96668.78;;;8.34;80.03
77823;BME280;67013;49.730;17.292;2024-02-23T05:13:01;96666.86;;;8.36;80.10
77823;BME280;67013;49.730;17.292;2024-02-23T05:15:30;96668.37;;;8.38;79.99
77823;BME280;67013;49.730;17.292;2024-02-23T05:18:00;96670.94;;;8.40;79.95
77823;BME280;67013;49.730;17.292;2024-02-23T05:20:30;96672.55;;;8.42;79.94
77823;BME280;67013;49.730;17.292;2024-02-23T05:22:59;96664.98;;;8.43;79.84
77823;BME280;67013;49.730;17.292;2024-02-23T05:25:29;96664.23;;;8.45;80.00
77823;BME280;67013;49.730;17.292;2024-02-23T05:27:58;96669.63;;;8.47;79.97
77823;BME280;67013;49.730;17.292;2024-02-23T05:30:28;96669.88;;;8.46;79.89
77823;BME280;67013;49.730;17.292;2024-02-23T05:32:59;96671.63;;;8.44;79.98
77823;BME280;67013;49.730;17.292;2024-02-23T05:35:31;96675.59;;;8.43;80.02
77823;BME280;67013;49.730;17.292;2024-02-23T05:38:01;96677.34;;;8.39;80.04
77823;BME280;67013;49.730;17.292;2024-02-23T05:40:30;96676.20;;;8.38;80.19
77823;BME280;67013;49.730;17.292;2024-02-23T05:43:00;96684.56;;;8.37;80.21
77823;BME280;67013;49.730;17.292;2024-02-23T05:58:32;96699.80;;;8.22;80.92
77823;BME280;67013;49.730;17.292;2024-02-23T06:01:02;96701.20;;;8.16;81.00
77823;BME280;67013;49.730;17.292;2024-02-23T06:03:32;96704.16;;;8.12;80.97
77823;BME280;67013;49.730;17.292;2024-02-23T06:06:06;96710.20;;;8.10;80.98
77823;BME280;67013;49.730;17.292;2024-02-23T06:08:36;96709.38;;;8.10;81.11
77823;BME280;67013;49.730;17.292;2024-02-23T06:11:05;96716.14;;;8.10;81.06
77823;BME280;67013;49.730;17.292;2024-02-23T06:13:35;96714.91;;;8.08;81.09
77823;BME280;67013;49.730;17.292;2024-02-23T06:16:09;96713.32;;;8.06;81.20
77823;BME280;67013;49.730;17.292;2024-02-23T06:18:39;96712.58;;;8.05;81.27
77823;BME280;67013;49.730;17.292;2024-02-23T06:21:16;96713.70;;;8.02;81.25
77823;BME280;67013;49.730;17.292;2024-02-23T06:23:46;96717.30;;;8.01;81.31
77823;BME280;67013;49.730;17.292;2024-02-23T06:26:16;96729.52;;;8.00;81.29
77823;BME280;67013;49.730;17.292;2024-02-23T06:28:46;96720.43;;;7.98;81.32
77823;BME280;67013;49.730;17.292;2024-02-23T06:31:17;96713.08;;;7.98;81.56
77823;BME280;67013;49.730;17.292;2024-02-23T06:33:46;96711.41;;;7.99;81.48
77823;BME280;67013;49.730;17.292;2024-02-23T06:36:17;96709.13;;;7.99;81.49
77823;BME280;67013;49.730;17.292;2024-02-23T06:38:47;96716.06;;;7.99;81.46
77823;BME280;67013;49.730;17.292;2024-02-23T06:41:17;96720.44;;;7.99;81.54
77823;BME280;67013;49.730;17.292;2024-02-23T06:43:47;96720.38;;;7.99;81.54
77823;BME280;67013;49.730;17.292;2024-02-23T06:46:18;96727.79;;;8.00;81.51
77823;BME280;67013;49.730;17.292;2024-02-23T06:48:48;96737.13;;;8.00;81.66
77823;BME280;67013;49.730;17.292;2024-02-23T06:51:18;96740.46;;;8.01;81.82
77823;BME280;67013;49.730;17.292;2024-02-23T06:53:48;96739.30;;;8.02;81.85
77823;BME280;67013;49.730;17.292;2024-02-23T06:56:18;96740.77;;;8.03;81.74
77823;BME280;67013;49.730;17.292;2024-02-23T06:58:47;96745.36;;;8.04;82.00
77823;BME280;67013;49.730;17.292;2024-02-23T07:01:17;96754.17;;;8.04;82.01
77823;BME280;67013;49.730;17.292;2024-02-23T07:03:49;96761.89;;;8.07;82.11
77823;BME280;67013;49.730;17.292;2024-02-23T07:06:19;96766.14;;;8.10;82.08
77823;BME280;67013;49.730;17.292;2024-02-23T07:08:49;96760.21;;;8.12;82.16
77823;BME280;67013;49.730;17.292;2024-02-23T07:11:18;96759.38;;;8.16;81.98
77823;BME280;67013;49.730;17.292;2024-02-23T07:13:48;96760.30;;;8.19;81.91
77823;BME280;67013;49.730;17.292;2024-02-23T07:16:19;96753.74;;;8.21;81.94
77823;BME280;67013;49.730;17.292;2024-02-23T07:18:48;96745.67;;;8.22;81.89
77823;BME280;67013;49.730;17.292;2024-02-23T07:21:19;96741.90;;;8.22;81.81
77823;BME280;67013;49.730;17.292;2024-02-23T07:23:49;96743.23;;;8.21;81.80
77823;BME280;67013;49.730;17.292;2024-02-23T07:26:19;96743.73;;;8.20;81.87
77823;BME280;67013;49.730;17.292;2024-02-23T07:28:50;96753.48;;;8.22;82.02
77823;BME280;67013;49.730;17.292;2024-02-23T07:31:20;96758.08;;;8.25;81.90
77823;BME280;67013;49.730;17.292;2024-02-23T07:33:50;96762.89;;;8.27;81.92
77823;BME280;67013;49.730;17.292;2024-02-23T07:36:19;96775.63;;;8.28;81.78
77823;BME280;67013;49.730;17.292;2024-02-23T07:38:49;96776.89;;;8.31;81.80
77823;BME280;67013;49.730;17.292;2024-02-23T07:41:18;96775.21;;;8.37;82.01
77823;BME280;67013;49.730;17.292;2024-02-23T07:43:48;96775.72;;;8.41;81.88
77823;BME280;67013;49.730;17.292;2024-02-23T07:46:17;96776.23;;;8.43;81.90
77823;BME280;67013;49.730;17.292;2024-02-23T07:48:48;96774.59;;;8.45;81.89
77823;BME280;67013;49.730;17.292;2024-02-23T07:51:18;96775.86;;;8.48;81.91
77823;BME280;67013;49.730;17.292;2024-02-23T07:53:48;96781.04;;;8.51;81.74
77823;BME280;67013;49.730;17.292;2024-02-23T07:56:18;96789.27;;;8.56;81.74
77823;BME280;67013;49.730;17.292;2024-02-23T07:58:47;96782.53;;;8.63;81.74
77823;BME280;67013;49.730;17.292;2024-02-23T08:01:17;96783.63;;;8.72;81.71
77823;BME280;67013;49.730;17.292;2024-02-23T08:03:47;96783.19;;;8.82;81.69
77823;BME280;67013;49.730;17.292;2024-02-23T08:06:17;96786.83;;;8.92;81.59
77823;BME280;67013;49.730;17.292;2024-02-23T08:08:46;96793.32;;;8.98;81.09
77823;BME280;67013;49.730;17.292;2024-02-23T08:11:16;96802.05;;;9.05;81.00
77823;BME280;67013;49.730;17.292;2024-02-23T08:13:45;96809.10;;;9.11;80.99
77823;BME280;67013;49.730;17.292;2024-02-23T08:16:17;96802.80;;;9.16;80.59
77823;BME280;67013;49.730;17.292;2024-02-23T08:18:46;96805.35;;;9.18;80.69
77823;BME280;67013;49.730;17.292;2024-02-23T08:21:16;96807.13;;;9.22;80.48
77823;BME280;67013;49.730;17.292;2024-02-23T08:23:47;96805.84;;;9.25;80.54
77823;BME280;67013;49.730;17.292;2024-02-23T08:26:16;96802.48;;;9.29;80.38
77823;BME280;67013;49.730;17.292;2024-02-23T08:28:46;96797.41;;;9.31;80.21
77823;BME280;67013;49.730;17.292;2024-02-23T08:31:15;96801.96;;;9.31;80.11
77823;BME280;67013;49.730;17.292;2024-02-23T08:33:46;96802.86;;;9.32;80.13
77823;BME280;67013;49.730;17.292;2024-02-23T08:36:16;96803.02;;;9.31;80.07
77823;BME280;67013;49.730;17.292;2024-02-23T08:38:45;96812.48;;;9.30;80.14
77823;BME280;67013;49.730;17.292;2024-02-23T08:41:15;96814.05;;;9.30;80.18
77823;BME280;67013;49.730;17.292;2024-02-23T08:43:45;96820.42;;;9.30;80.13
77823;BME280;67013;49.730;17.292;2024-02-23T08:46:14;96822.05;;;9.29;80.38
77823;BME280;67013;49.730;17.292;2024-02-23T08:48:44;96821.50;;;9.30;80.27
77823;BME280;67013;49.730;17.292;2024-02-23T08:51:14;96822.17;;;9.32;80.29
77823;BME280;67013;49.730;17.292;2024-02-23T08:53:44;96828.11;;;9.33;80.59
77823;BME280;67013;49.730;17.292;2024-02-23T08:56:15;96835.33;;;9.34;80.36
77823;BME280;67013;49.730;17.292;2024-02-23T08:58:45;96844.94;;;9.33;80.25
77823;BME280;67013;49.730;17.292;2024-02-23T09:01:14;96849.23;;;9.34;80.40
77823;BME280;67013;49.730;17.292;2024-02-23T09:03:44;96853.51;;;9.36;80.34
77823;BME280;67013;49.730;17.292;2024-02-23T09:06:13;96850.19;;;9.36;80.33
77823;BME280;67013;49.730;17.292;2024-02-23T09:08:43;96842.45;;;9.34;80.23
77823;BME280;67013;49.730;17.292;2024-02-23T09:11:12;96830.10;;;9.34;80.25
77823;BME280;67013;49.730;17.292;2024-02-23T09:13:43;96828.02;;;9.32;80.04
77823;BME280;67013;49.730;17.292;2024-02-23T09:16:12;96830.80;;;9.29;80.03
77823;BME280;67013;49.730;17.292;2024-02-23T09:18:42;96833.23;;;9.27;80.15
77823;BME280;67013;49.730;17.292;2024-02-23T09:21:12;96841.98;;;9.26;80.09
77823;BME280;67013;49.730;17.292;2024-02-23T09:23:42;96849.95;;;9.28;80.12
77823;BME280;67013;49.730;17.292;2024-02-23T09:26:12;96859.92;;;9.31;80.26
77823;BME280;67013;49.730;17.292;2024-02-23T09:28:41;96869.05;;;9.35;80.24
77823;BME280;67013;49.730;17.292;2024-02-23T09:31:13;96875.06;;;9.39;80.08
77823;BME280;67013;49.730;17.292;2024-02-23T09:33:42;96875.52;;;9.44;80.24
77823;BME280;67013;49.730;17.292;2024-02-23T09:36:14;96883.69;;;9.47;80.32
77823;BME280;67013;49.730;17.292;2024-02-23T09:38:43;96886.34;;;9.50;79.89
77823;BME280;67013;49.730;17.292;2024-02-23T09:41:19;96883.56;;;9.52;79.89
77823;BME280;67013;49.730;17.292;2024-02-23T09:43:50;96890.06;;;9.53;79.81
77823;BME280;67013;49.730;17.292;2024-02-23T09:46:20;96894.83;;;9.54;79.95
77823;BME280;67013;49.730;17.292;2024-02-23T09:48:50;96901.65;;;9.55;79.98
77823;BME280;67013;49.730;17.292;2024-02-23T09:51:21;96906.94;;;9.57;80.08
77823;BME280;67013;49.730;17.292;2024-02-23T09:53:52;96910.03;;;9.59;80.04
77823;BME280;67013;49.730;17.292;2024-02-23T09:56:22;96918.09;;;9.60;80.10
77823;BME280;67013;49.730;17.292;2024-02-23T09:58:58;96916.15;;;9.61;80.12
77823;BME280;67013;49.730;17.292;2024-02-23T10:01:30;96917.16;;;9.59;79.79
77823;BME280;67013;49.730;17.292;2024-02-23T10:04:01;96916.86;;;9.59;80.10
77823;BME280;67013;49.730;17.292;2024-02-23T10:06:32;96919.23;;;9.57;80.23
77823;BME280;67013;49.730;17.292;2024-02-23T10:09:02;96924.75;;;9.55;80.20
77823;BME280;67013;49.730;17.292;2024-02-23T10:11:33;96925.80;;;9.53;80.14
77823;BME280;67013;49.730;17.292;2024-02-23T10:14:03;96926.14;;;9.55;80.47
77823;BME280;67013;49.730;17.292;2024-02-23T10:16:33;96929.33;;;9.59;80.37
77823;BME280;67013;49.730;17.292;2024-02-23T10:19:02;96931.48;;;9.60;80.28
77823;BME280;67013;49.730;17.292;2024-02-23T10:21:34;96930.27;;;9.62;80.30
77823;BME280;67013;49.730;17.292;2024-02-23T10:24:04;96931.79;;;9.65;80.53
77823;BME280;67013;49.730;17.292;2024-02-23T10:26:34;96928.49;;;9.69;80.24
77823;BME280;67013;49.730;17.292;2024-02-23T10:29:03;96938.90;;;9.73;79.98
77823;BME280;67013;49.730;17.292;2024-02-23T10:31:34;96938.41;;;9.77;79.44
77823;BME280;67013;49.730;17.292;2024-02-23T10:34:08;96935.94;;;9.81;79.29
77823;BME280;67013;49.730;17.292;2024-02-23T10:36:41;96928.25;;;9.85;79.00
77823;BME280;67013;49.730;17.292;2024-02-23T10:39:17;96922.38;;;9.90;78.99
77823;BME280;67013;49.730;17.292;2024-02-23T10:41:50;96921.32;;;9.94;78.69
77823;BME280;67013;49.730;17.292;2024-02-23T10:44:23;96924.39;;;9.99;78.85
77823;BME280;67013;49.730;17.292;2024-02-23T10:46:54;96923.77;;;10.03;78.42
77823;BME280;67013;49.730;17.292;2024-02-23T10:49:25;96928.19;;;10.06;78.29
77823;BME280;67013;49.730;17.292;2024-02-23T10:51:55;96926.63;;;10.10;78.12
77823;BME280;67013;49.730;17.292;2024-02-23T10:54:26;96930.48;;;10.13;77.93
77823;BME280;67013;49.730;17.292;2024-02-23T10:56:56;96928.79;;;10.16;77.80
77823;BME280;67013;49.730;17.292;2024-02-23T10:59:26;96918.23;;;10.20;77.61
77823;BME280;67013;49.730;17.292;2024-02-23T11:01:57;96919.86;;;10.24;77.52
77823;BME280;67013;49.730;17.292;2024-02-23T11:04:28;96924.31;;;10.29;77.35
77823;BME280;67013;49.730;17.292;2024-02-23T11:06:59;96922.81;;;10.32;76.73
77823;BME280;67013;49.730;17.292;2024-02-23T11:09:33;96925.39;;;10.34;76.83
77823;BME280;67013;49.730;17.292;2024-02-23T11:12:07;96926.14;;;10.37;77.27
77823;BME280;67013;49.730;17.292;2024-02-23T11:14:38;96933.50;;;10.41;76.98
77823;BME280;67013;49.730;17.292;2024-02-23T11:17:19;96945.11;;;10.44;76.72
77823;BME280;67013;49.730;17.292;2024-02-23T11:19:50;96947.00;;;10.44;76.01
77823;BME280;67013;49.730;17.292;2024-02-23T11:22:26;96932.77;;;10.44;75.84
77823;BME280;67013;49.730;17.292;2024-02-23T11:25:01;96919.17;;;10.44;76.05
77823;BME280;67013;49.730;17.292;2024-02-23T11:27:33;96922.67;;;10.48;75.85
77823;BME280;67013;49.730;17.292;2024-02-23T11:30:06;96921.27;;;10.51;75.74
77823;BME280;67013;49.730;17.292;2024-02-23T11:32:43;96922.36;;;10.58;75.59
77823;BME280;67013;49.730;17.292;2024-02-23T11:35:16;96919.94;;;10.67;75.35
77823;BME280;67013;49.730;17.292;2024-02-23T11:37:53;96921.20;;;10.76;75.03
77823;BME280;67013;49.730;17.292;2024-02-23T11:40:27;96922.71;;;10.85;75.29
77823;BME280;67013;49.730;17.292;2024-02-23T11:42:57;96928.04;;;10.95;75.12
77823;BME280;67013;49.730;17.292;2024-02-23T11:45:29;96927.90;;;11.03;74.92
77823;BME280;67013;49.730;17.292;2024-02-23T11:48:00;96927.19;;;11.14;74.92
77823;BME280;67013;49.730;17.292;2024-02-23T11:50:29;96933.96;;;11.24;74.72
77823;BME280;67013;49.730;17.292;2024-02-23T11:52:59;96938.71;;;11.33;74.17
77823;BME280;67013;49.730;17.292;2024-02-23T11:55:29;96931.59;;;11.38;73.65
77823;BME280;67013;49.730;17.292;2024-02-23T11:58:00;96932.27;;;11.45;73.56
77823;BME280;67013;49.730;17.292;2024-02-23T12:00:30;96928.88;;;11.51;73.08
77823;BME280;67013;49.730;17.292;2024-02-23T12:03:02;96926.68;;;11.59;72.63
77823;BME280;67013;49.730;17.292;2024-02-23T12:05:33;96925.14;;;11.67;72.39
77823;BME280;67013;49.730;17.292;2024-02-23T12:08:03;96931.50;;;11.73;72.26
77823;BME280;67013;49.730;17.292;2024-02-23T12:10:33;96934.59;;;11.78;71.87
77823;BME280;67013;49.730;17.292;2024-02-23T12:13:04;96931.14;;;11.79;71.35
77823;BME280;67013;49.730;17.292;2024-02-23T12:15:34;96929.32;;;11.83;71.17
77823;BME280;67013;49.730;17.292;2024-02-23T12:18:05;96931.39;;;11.90;71.07
77823;BME280;67013;49.730;17.292;2024-02-23T12:20:36;96939.09;;;11.97;70.00
77823;BME280;67013;49.730;17.292;2024-02-23T12:23:05;96939.27;;;12.02;69.32
77823;BME280;67013;49.730;17.292;2024-02-23T12:25:36;96941.17;;;12.07;69.66
77823;BME280;67013;49.730;17.292;2024-02-23T12:28:06;96945.90;;;12.12;69.42
77823;BME280;67013;49.730;17.292;2024-02-23T12:30:37;96946.41;;;12.16;68.93
77823;BME280;67013;49.730;17.292;2024-02-23T12:33:07;96943.68;;;12.18;68.10
77823;BME280;67013;49.730;17.292;2024-02-23T12:35:37;96935.58;;;12.19;67.98
77823;BME280;67013;49.730;17.292;2024-02-23T12:38:09;96934.44;;;12.22;68.12
77823;BME280;67013;49.730;17.292;2024-02-23T12:40:38;96928.73;;;12.26;68.32
77823;BME280;67013;49.730;17.292;2024-02-23T12:43:08;96926.39;;;12.29;67.52
77823;BME280;67013;49.730;17.292;2024-02-23T12:45:37;96919.35;;;12.31;66.33
77823;BME280;67013;49.730;17.292;2024-02-23T12:48:08;96924.00;;;12.33;66.91
77823;BME280;67013;49.730;17.292;2024-02-23T12:50:37;96930.22;;;12.33;67.26
77823;BME280;67013;49.730;17.292;2024-02-23T12:53:07;96936.75;;;12.31;67.34
77823;BME280;67013;49.730;17.292;2024-02-23T12:55:37;96944.40;;;12.28;66.57
77823;BME280;67013;49.730;17.292;2024-02-23T12:58:07;96944.95;;;12.23;66.40
77823;BME280;67013;49.730;17.292;2024-02-23T13:00:36;96949.18;;;12.16;67.09
77823;BME280;67013;49.730;17.292;2024-02-23T13:03:06;96958.65;;;12.10;66.97
77823;BME280;67013;49.730;17.292;2024-02-23T13:05:36;96968.81;;;12.03;66.86
77823;BME280;67013;49.730;17.292;2024-02-23T13:08:07;96967.25;;;11.94;67.33
77823;BME280;67013;49.730;17.292;2024-02-23T13:10:36;96962.89;;;11.85;67.56
77823;BME280;67013;49.730;17.292;2024-02-23T13:13:06;96965.00;;;11.78;67.79
77823;BME280;67013;49.730;17.292;2024-02-23T13:15:36;96963.14;;;11.72;67.79
77823;BME280;67013;49.730;17.292;2024-02-23T13:18:06;96964.08;;;11.66;68.00
77823;BME280;67013;49.730;17.292;2024-02-23T13:20:36;96964.26;;;11.61;67.69
77823;BME280;67013;49.730;17.292;2024-02-23T13:23:06;96968.70;;;11.55;68.11
77823;BME280;67013;49.730;17.292;2024-02-23T13:25:37;96969.27;;;11.49;67.44